createdAt,value
2022-08-26T00:00:25.012Z,22.22
2022-08-26T00:02:53.503Z,22.20
2022-08-26T00:05:22.719Z,22.17
2022-08-26T00:07:51.931Z,22.21
2022-08-26T00:10:22.787Z,22.21
2022-08-26T00:12:54.565Z,22.22
2022-08-26T00:15:25.495Z,22.23
2022-08-26T00:17:54.580Z,22.25
2022-08-26T00:20:28.943Z,22.27
2022-08-26T00:22:57.734Z,22.26
2022-08-26T00:25:30.248Z,22.28
2022-08-26T00:27:58.937Z,22.31
2022-08-26T00:30:30.525Z,22.27
2022-08-26T00:33:00.251Z,22.27
2022-08-26T00:35:29.337Z,22.26
2022-08-26T00:38:04.034Z,22.23
2022-08-26T00:40:37.737Z,22.21
2022-08-26T00:43:09.279Z,22.18
2022-08-26T00:45:45.098Z,22.20
2022-08-26T00:48:17.565Z,22.17
2022-08-26T00:50:54.420Z,22.19
2022-08-26T00:53:26.046Z,22.16
2022-08-26T00:56:03.208Z,22.18
2022-08-26T00:58:35.335Z,22.19
2022-08-26T01:01:04.383Z,22.17
2022-08-26T01:03:35.640Z,22.19
2022-08-26T01:06:12.479Z,22.19
2022-08-26T01:08:42.398Z,22.20
2022-08-26T01:11:13.068Z,22.19
2022-08-26T01:13:42.457Z,22.19
2022-08-26T01:16:14.547Z,22.17
2022-08-26T01:18:44.741Z,22.12
2022-08-26T01:21:22.583Z,22.08
2022-08-26T01:23:57.524Z,22.06
2022-08-26T01:26:31.202Z,22.05
2022-08-26T01:29:05.651Z,22.05
2022-08-26T01:31:42.051Z,22.04
2022-08-26T01:34:18.551Z,22.01
2022-08-26T01:36:51.593Z,22.01
2022-08-26T01:39:22.388Z,21.99
2022-08-26T01:41:55.318Z,22.01
2022-08-26T01:44:28.408Z,21.99
2022-08-26T01:47:00.659Z,21.98
2022-08-26T01:49:31.964Z,21.95
2022-08-26T01:52:05.559Z,21.95
2022-08-26T01:54:37.341Z,21.93
2022-08-26T01:57:08.120Z,21.91
2022-08-26T01:59:37.288Z,21.91
2022-08-26T02:02:06.198Z,21.90
2022-08-26T02:04:39.218Z,21.87
2022-08-26T02:07:11.160Z,21.88
2022-08-26T02:09:42.620Z,21.90
2022-08-26T02:12:16.523Z,21.90
2022-08-26T02:14:52.437Z,21.88
2022-08-26T02:17:24.822Z,21.83
2022-08-26T02:19:53.943Z,21.82
2022-08-26T02:22:24.935Z,21.82
2022-08-26T02:24:58.249Z,21.81
2022-08-26T02:27:32.162Z,21.81
2022-08-26T02:30:08.548Z,21.81
2022-08-26T02:32:37.363Z,21.80
2022-08-26T02:35:10.057Z,21.79
2022-08-26T02:37:39.067Z,21.78
2022-08-26T02:40:15.750Z,21.78
2022-08-26T02:42:44.449Z,21.78
2022-08-26T02:45:13.327Z,21.77
2022-08-26T02:47:46.661Z,21.77
2022-08-26T02:50:15.477Z,21.75
2022-08-26T02:52:45.531Z,21.74
2022-08-26T02:55:16.228Z,21.73
2022-08-26T02:57:44.981Z,21.69
2022-08-26T03:00:15.578Z,21.70
2022-08-26T03:02:44.485Z,21.71
2022-08-26T03:05:14.096Z,21.68
2022-08-26T03:07:45.165Z,21.65
2022-08-26T03:10:16.724Z,21.70
2022-08-26T03:12:48.097Z,21.66
2022-08-26T03:15:19.021Z,21.64
2022-08-26T03:17:50.328Z,21.59
2022-08-26T03:20:19.987Z,21.59
2022-08-26T03:22:51.646Z,21.55
2022-08-26T03:25:23.300Z,21.55
2022-08-26T03:27:52.839Z,21.56
2022-08-26T03:30:34.670Z,21.57
2022-08-26T03:33:03.862Z,21.58
2022-08-26T03:35:33.577Z,21.59
2022-08-26T03:38:03.478Z,21.57
2022-08-26T03:40:34.091Z,21.52
2022-08-26T03:43:03.425Z,21.51
2022-08-26T03:45:32.319Z,21.53
2022-08-26T03:48:02.848Z,21.53
2022-08-26T03:50:34.242Z,21.52
2022-08-26T03:53:04.206Z,21.51
2022-08-26T03:55:37.648Z,21.50
2022-08-26T03:58:08.060Z,21.51
2022-08-26T04:00:37.060Z,21.50
2022-08-26T04:03:06.022Z,21.50
2022-08-26T04:05:39.651Z,21.50
2022-08-26T04:08:08.656Z,21.50
2022-08-26T04:10:40.743Z,21.51
2022-08-26T04:13:09.609Z,21.49
2022-08-26T04:15:39.716Z,21.48
2022-08-26T04:18:08.557Z,21.49
2022-08-26T04:20:37.356Z,21.50
2022-08-26T04:23:06.270Z,21.50
2022-08-26T04:25:35.118Z,21.53
2022-08-26T04:28:05.859Z,21.54
2022-08-26T04:30:38.855Z,21.56
2022-08-26T04:33:13.230Z,21.54
2022-08-26T04:35:44.221Z,21.54
2022-08-26T04:38:13.140Z,21.56
2022-08-26T04:40:46.898Z,21.60
2022-08-26T04:43:17.379Z,21.63
2022-08-26T04:45:46.489Z,21.65
2022-08-26T04:48:16.850Z,21.69
2022-08-26T04:50:49.448Z,21.72
2022-08-26T04:53:19.277Z,21.76
2022-08-26T04:55:48.402Z,21.81
2022-08-26T04:58:21.480Z,21.87
2022-08-26T05:00:52.559Z,21.89
2022-08-26T05:03:23.936Z,21.86
2022-08-26T05:05:52.916Z,21.92
2022-08-26T05:08:23.640Z,22.00
2022-08-26T05:10:56.486Z,22.06
2022-08-26T05:13:28.902Z,22.10
2022-08-26T05:16:01.149Z,22.15
2022-08-26T05:18:30.010Z,22.20
2022-08-26T05:20:58.809Z,22.28
2022-08-26T05:23:27.441Z,22.34
2022-08-26T05:25:59.256Z,22.43
2022-08-26T05:28:31.257Z,22.51
2022-08-26T05:31:00.999Z,22.61
2022-08-26T05:33:29.772Z,22.66
2022-08-26T05:35:58.757Z,22.74
2022-08-26T05:38:30.408Z,22.83
2022-08-26T05:40:59.559Z,22.91
2022-08-26T05:43:30.557Z,22.98
2022-08-26T05:46:08.401Z,23.06
2022-08-26T05:48:37.041Z,23.10
2022-08-26T05:51:08.898Z,23.21
2022-08-26T05:53:40.429Z,23.29
2022-08-26T05:56:13.567Z,23.35
2022-08-26T05:58:44.165Z,23.43
2022-08-26T06:01:19.873Z,23.53
2022-08-26T06:03:53.076Z,23.66
2022-08-26T06:06:27.460Z,23.74
2022-08-26T06:08:59.508Z,23.78
2022-08-26T06:11:32.663Z,23.90
2022-08-26T06:14:04.401Z,23.99
2022-08-26T06:16:35.339Z,24.05
2022-08-26T06:19:11.163Z,24.08
2022-08-26T06:21:42.008Z,24.16
2022-08-26T06:24:27.305Z,24.21
2022-08-26T06:26:58.619Z,24.32
2022-08-26T06:29:29.667Z,24.39
2022-08-26T06:31:59.101Z,24.48
2022-08-26T06:34:30.807Z,24.55
2022-08-26T06:37:03.655Z,24.61
2022-08-26T06:39:33.368Z,24.66
2022-08-26T06:42:03.023Z,24.69
2022-08-26T06:44:37.157Z,24.71
2022-08-26T06:47:10.018Z,24.77
2022-08-26T06:49:38.599Z,24.82
2022-08-26T06:52:08.652Z,24.90
2022-08-26T06:54:38.892Z,24.96
2022-08-26T06:57:07.838Z,25.03
2022-08-26T06:59:37.711Z,25.10
2022-08-26T07:02:06.933Z,25.23
2022-08-26T07:04:37.086Z,25.30
2022-08-26T07:07:05.587Z,25.45
2022-08-26T07:09:38.237Z,25.53
2022-08-26T07:12:07.383Z,25.61
2022-08-26T07:14:37.846Z,25.68
2022-08-26T07:17:12.186Z,25.72
2022-08-26T07:19:42.632Z,25.78
2022-08-26T07:22:11.199Z,25.85
2022-08-26T07:24:42.409Z,25.96
2022-08-26T07:27:13.709Z,26.12
2022-08-26T07:29:45.022Z,26.24
2022-08-26T07:32:15.588Z,26.35
2022-08-26T07:34:45.895Z,26.44
2022-08-26T07:37:14.491Z,26.52
2022-08-26T07:39:44.546Z,26.59
2022-08-26T07:42:15.373Z,26.70
2022-08-26T07:44:45.592Z,26.82
2022-08-26T07:47:24.983Z,26.90
2022-08-26T07:49:56.930Z,26.97
2022-08-26T07:52:27.352Z,27.04
2022-08-26T07:54:58.409Z,27.05
2022-08-26T07:57:27.621Z,27.18
2022-08-26T07:59:58.332Z,27.28
2022-08-26T08:02:28.614Z,27.33
2022-08-26T08:04:58.634Z,27.43
2022-08-26T08:07:38.600Z,27.50
2022-08-26T08:10:17.943Z,27.61
2022-08-26T08:12:51.042Z,27.70
2022-08-26T08:15:25.521Z,27.77
2022-08-26T08:17:55.630Z,27.83
2022-08-26T08:20:28.571Z,27.92
2022-08-26T08:22:58.163Z,27.96
2022-08-26T08:25:26.797Z,28.05
2022-08-26T08:27:55.356Z,28.09
2022-08-26T08:30:28.254Z,28.19
2022-08-26T08:32:57.375Z,28.28
2022-08-26T08:35:26.985Z,28.39
2022-08-26T08:37:56.976Z,28.50
2022-08-26T08:40:27.900Z,28.63
2022-08-26T08:43:06.489Z,28.72
2022-08-26T08:45:40.339Z,28.81
2022-08-26T08:48:17.434Z,28.84
2022-08-26T08:50:50.742Z,28.92
2022-08-26T08:53:23.556Z,29.08
2022-08-26T08:56:06.283Z,29.13
2022-08-26T08:58:47.974Z,29.25
2022-08-26T09:01:29.468Z,29.33
2022-08-26T09:04:24.825Z,29.46
2022-08-26T09:09:34.235Z,29.55
2022-08-26T09:12:03.844Z,29.53
2022-08-26T09:14:33.174Z,29.58
2022-08-26T09:17:10.473Z,29.73
2022-08-26T09:19:44.994Z,29.80
2022-08-26T09:22:30.536Z,29.85
2022-08-26T09:24:59.502Z,29.87
2022-08-26T09:27:44.314Z,29.85
2022-08-26T09:30:16.079Z,29.98
2022-08-26T09:33:00.240Z,30.09
2022-08-26T09:35:32.367Z,30.19
2022-08-26T09:38:01.098Z,30.22
2022-08-26T09:40:34.968Z,30.29
2022-08-26T09:43:11.543Z,30.29
2022-08-26T09:45:50.836Z,30.40
2022-08-26T09:48:35.515Z,30.45
2022-08-26T09:51:08.695Z,30.56
2022-08-26T09:53:51.388Z,30.62
2022-08-26T09:56:32.297Z,30.71
2022-08-26T09:59:01.912Z,30.80
2022-08-26T10:01:34.007Z,30.86
2022-08-26T10:04:11.460Z,30.92
2022-08-26T10:06:43.558Z,30.95
2022-08-26T10:09:18.720Z,31.09
2022-08-26T10:11:52.622Z,31.19
2022-08-26T10:14:27.847Z,31.33
2022-08-26T10:17:03.528Z,31.42
2022-08-26T10:19:55.564Z,31.49
2022-08-26T10:22:36.089Z,31.51
2022-08-26T10:25:08.671Z,31.52
2022-08-26T10:27:53.279Z,31.57
2022-08-26T10:30:25.391Z,31.56
2022-08-26T10:32:59.451Z,31.50
2022-08-26T10:35:30.451Z,31.55
2022-08-26T10:38:04.263Z,31.71
2022-08-26T10:40:46.422Z,31.85
2022-08-26T10:43:23.781Z,31.99
2022-08-26T10:45:58.456Z,32.12
2022-08-26T10:48:36.041Z,32.12
2022-08-26T10:51:07.162Z,32.07
2022-08-26T10:53:56.282Z,32.12
2022-08-26T10:56:40.299Z,32.01
2022-08-26T10:59:19.162Z,32.09
2022-08-26T11:01:54.811Z,32.30
2022-08-26T11:04:45.777Z,32.44
2022-08-26T11:07:38.401Z,32.67
2022-08-26T11:10:14.149Z,32.77
2022-08-26T11:12:59.595Z,32.73
2022-08-26T11:15:50.125Z,32.75
2022-08-26T11:18:41.592Z,32.68
2022-08-26T11:21:39.766Z,32.69
2022-08-26T11:24:08.374Z,32.76
2022-08-26T11:26:55.925Z,32.78
2022-08-26T11:29:51.073Z,32.77
2022-08-26T11:32:46.721Z,32.75
2022-08-26T11:35:39.436Z,32.77
2022-08-26T11:38:18.682Z,32.79
2022-08-26T11:40:58.421Z,32.88
2022-08-26T11:43:30.502Z,32.97
2022-08-26T11:46:04.749Z,33.01
2022-08-26T11:48:36.824Z,32.89
2022-08-26T11:51:09.359Z,32.62
2022-08-26T11:53:40.253Z,32.55
2022-08-26T11:56:12.133Z,32.50
2022-08-26T11:58:46.471Z,32.40
2022-08-26T12:01:27.580Z,32.47
2022-08-26T12:04:01.181Z,32.74
2022-08-26T12:06:36.389Z,32.88
2022-08-26T12:09:15.305Z,33.05
2022-08-26T12:11:44.102Z,33.23
2022-08-26T12:14:20.162Z,33.39
2022-08-26T12:16:49.454Z,33.40
2022-08-26T12:19:27.426Z,33.57
2022-08-26T12:22:05.515Z,33.71
2022-08-26T12:24:34.418Z,33.96
2022-08-26T12:27:22.615Z,34.07
2022-08-26T12:30:08.300Z,34.16
2022-08-26T12:32:58.202Z,34.19
2022-08-26T12:35:29.465Z,34.17
2022-08-26T12:37:59.142Z,34.10
2022-08-26T12:40:37.355Z,33.90
2022-08-26T12:43:08.241Z,33.79
2022-08-26T12:45:41.863Z,33.83
2022-08-26T12:48:13.841Z,33.79
2022-08-26T12:50:48.825Z,33.69
2022-08-26T12:53:23.432Z,33.48
2022-08-26T12:55:54.690Z,33.30
2022-08-26T12:58:28.022Z,33.11
2022-08-26T13:01:00.282Z,33.05
2022-08-26T13:03:33.154Z,33.04
2022-08-26T13:06:15.936Z,33.06
2022-08-26T13:08:47.031Z,33.02
2022-08-26T13:11:20.832Z,32.97
2022-08-26T13:13:52.186Z,32.95
2022-08-26T13:16:24.305Z,32.76
2022-08-26T13:18:55.234Z,32.60
2022-08-26T13:21:27.193Z,32.44
2022-08-26T13:23:58.013Z,32.40
2022-08-26T13:26:27.626Z,32.33
2022-08-26T13:29:01.737Z,32.24
2022-08-26T13:31:35.905Z,32.19
2022-08-26T13:34:06.508Z,32.15
2022-08-26T13:36:35.235Z,32.13
2022-08-26T13:39:04.412Z,32.11
2022-08-26T13:41:33.304Z,32.15
2022-08-26T13:44:02.056Z,32.12
2022-08-26T13:46:32.578Z,32.12
2022-08-26T13:49:01.376Z,32.11
2022-08-26T13:51:31.331Z,32.06
2022-08-26T13:54:00.386Z,32.01
2022-08-26T13:56:31.294Z,31.97
2022-08-26T13:59:01.468Z,31.89
2022-08-26T14:01:33.984Z,31.85
2022-08-26T14:04:03.483Z,31.73
2022-08-26T14:06:32.551Z,31.61
2022-08-26T14:09:01.066Z,31.56
2022-08-26T14:11:49.053Z,31.50
2022-08-26T14:14:19.225Z,31.38
2022-08-26T14:16:51.293Z,31.23
2022-08-26T14:19:30.733Z,30.75
2022-08-26T14:22:02.019Z,30.42
2022-08-26T14:24:31.303Z,30.25
2022-08-26T14:26:59.754Z,30.10
2022-08-26T14:29:28.653Z,29.79
2022-08-26T14:32:00.434Z,29.59
2022-08-26T14:34:29.636Z,29.43
2022-08-26T14:36:58.292Z,29.34
2022-08-26T14:39:37.633Z,29.16
2022-08-26T14:42:06.852Z,28.98
2022-08-26T14:44:35.845Z,28.96
2022-08-26T14:47:07.513Z,28.98
2022-08-26T14:49:36.442Z,28.91
2022-08-26T14:52:05.747Z,28.86
2022-08-26T14:54:33.878Z,28.83
2022-08-26T14:57:06.201Z,28.88
2022-08-26T14:59:38.965Z,28.86
2022-08-26T15:02:11.915Z,28.79
2022-08-26T15:04:43.165Z,28.76
2022-08-26T15:07:12.631Z,28.77
2022-08-26T15:09:41.813Z,28.77
2022-08-26T15:12:10.593Z,28.75
2022-08-26T15:14:39.765Z,28.65
2022-08-26T15:17:09.885Z,28.61
2022-08-26T15:19:38.976Z,28.62
2022-08-26T15:22:07.757Z,28.55
2022-08-26T15:24:36.814Z,28.50
2022-08-26T15:27:06.746Z,28.50
2022-08-26T15:29:36.404Z,28.50
2022-08-26T15:32:06.320Z,28.43
2022-08-26T15:34:36.656Z,28.35
2022-08-26T15:37:06.395Z,28.38
2022-08-26T15:39:35.947Z,28.41
2022-08-26T15:42:05.215Z,28.36
2022-08-26T15:44:34.373Z,28.36
2022-08-26T15:47:03.237Z,28.37
2022-08-26T15:49:32.292Z,28.37
2022-08-26T15:52:05.245Z,28.33
2022-08-26T15:54:34.698Z,28.30
2022-08-26T15:57:08.211Z,28.24
2022-08-26T15:59:39.948Z,28.16
2022-08-26T16:02:09.407Z,28.15
2022-08-26T16:04:38.800Z,28.12
2022-08-26T16:07:09.185Z,28.10
2022-08-26T16:09:38.104Z,28.04
2022-08-26T16:12:07.244Z,27.99
2022-08-26T16:14:36.524Z,27.90
2022-08-26T16:17:05.083Z,27.81
2022-08-26T16:19:33.768Z,27.78
2022-08-26T16:22:02.884Z,27.61
2022-08-26T16:24:32.935Z,27.47
2022-08-26T16:27:01.635Z,27.44
2022-08-26T16:29:32.209Z,27.40
2022-08-26T16:32:00.839Z,27.33
2022-08-26T16:34:29.331Z,27.16
2022-08-26T16:36:58.129Z,27.09
2022-08-26T16:39:26.977Z,27.11
2022-08-26T16:41:56.977Z,27.13
2022-08-26T16:44:26.174Z,27.19
2022-08-26T16:46:59.559Z,27.25
2022-08-26T16:49:28.300Z,27.32
2022-08-26T16:51:57.141Z,27.40
2022-08-26T16:54:25.792Z,27.43
2022-08-26T16:56:54.567Z,27.42
2022-08-26T16:59:24.589Z,27.38
2022-08-26T17:01:53.458Z,27.43
2022-08-26T17:04:22.620Z,27.43
2022-08-26T17:06:51.978Z,27.41
2022-08-26T17:09:20.868Z,27.36
2022-08-26T17:11:50.682Z,27.32
2022-08-26T17:14:19.720Z,27.29
2022-08-26T17:16:51.842Z,27.22
2022-08-26T17:19:22.129Z,27.13
2022-08-26T17:21:51.013Z,27.08
2022-08-26T17:24:19.727Z,27.01
2022-08-26T17:26:53.539Z,26.93
2022-08-26T17:29:27.681Z,26.85
2022-08-26T17:31:57.814Z,26.79
2022-08-26T17:34:26.441Z,26.68
2022-08-26T17:36:56.373Z,26.55
2022-08-26T17:39:25.043Z,26.46
2022-08-26T17:41:53.703Z,26.40
2022-08-26T17:44:22.433Z,26.33
2022-08-26T17:46:51.065Z,26.29
2022-08-26T17:49:21.235Z,26.25
2022-08-26T17:51:50.762Z,26.25
2022-08-26T17:54:19.736Z,26.22
2022-08-26T17:56:48.401Z,26.17
2022-08-26T17:59:17.442Z,26.09
2022-08-26T18:01:47.193Z,26.03
2022-08-26T18:04:16.129Z,26.00
2022-08-26T18:06:46.549Z,25.97
2022-08-26T18:09:15.193Z,25.93
2022-08-26T18:11:44.013Z,25.91
2022-08-26T18:14:12.737Z,25.86
2022-08-26T18:16:41.852Z,25.77
2022-08-26T18:19:10.508Z,25.67
2022-08-26T18:21:39.163Z,25.51
2022-08-26T18:24:13.830Z,25.42
2022-08-26T18:26:48.726Z,25.36
2022-08-26T18:29:19.968Z,25.29
2022-08-26T18:31:49.858Z,25.22
2022-08-26T18:34:19.678Z,25.12
2022-08-26T18:36:48.810Z,24.93
2022-08-26T18:39:23.581Z,24.73
2022-08-26T18:41:53.671Z,24.71
2022-08-26T18:44:23.526Z,24.67
2022-08-26T18:46:52.669Z,24.66
2022-08-26T18:49:23.431Z,24.66
2022-08-26T18:51:52.677Z,24.58
2022-08-26T18:54:22.801Z,24.61
2022-08-26T18:56:52.270Z,24.59
2022-08-26T18:59:27.948Z,24.59
2022-08-26T19:02:00.059Z,24.55
2022-08-26T19:04:28.844Z,24.53
2022-08-26T19:06:57.436Z,24.48
2022-08-26T19:09:28.089Z,24.46
2022-08-26T19:11:59.014Z,24.45
2022-08-26T19:14:27.761Z,24.42
2022-08-26T19:16:56.611Z,24.38
2022-08-26T19:19:25.321Z,24.32
2022-08-26T19:21:54.682Z,24.31
2022-08-26T19:24:25.987Z,24.26
2022-08-26T19:27:00.982Z,24.25
2022-08-26T19:29:32.082Z,24.21
2022-08-26T19:32:02.110Z,24.16
2022-08-26T19:34:30.911Z,24.20
2022-08-26T19:37:00.121Z,24.19
2022-08-26T19:39:28.800Z,24.15
2022-08-26T19:42:01.211Z,24.05
2022-08-26T19:44:49.590Z,23.99
2022-08-26T19:47:18.310Z,23.97
2022-08-26T19:49:47.520Z,23.93
2022-08-26T19:52:16.120Z,23.90
2022-08-26T19:54:45.211Z,23.87
2022-08-26T19:57:15.340Z,23.86
2022-08-26T19:59:44.919Z,23.85
2022-08-26T20:02:14.587Z,23.83
2022-08-26T20:04:43.810Z,23.82
2022-08-26T20:07:18.540Z,23.79
2022-08-26T20:09:49.830Z,23.78
2022-08-26T20:12:20.152Z,23.77
2022-08-26T20:14:49.316Z,23.75
2022-08-26T20:17:17.936Z,23.73
2022-08-26T20:19:56.650Z,23.71
2022-08-26T20:22:25.711Z,23.70
2022-08-26T20:24:54.337Z,23.68
2022-08-26T20:27:37.942Z,23.64
2022-08-26T20:30:09.878Z,23.57
2022-08-26T20:32:39.047Z,23.54
2022-08-26T20:35:09.636Z,23.48
2022-08-26T20:37:39.226Z,23.47
2022-08-26T20:40:09.002Z,23.44
2022-08-26T20:42:39.507Z,23.42
2022-08-26T20:45:09.598Z,23.40
2022-08-26T20:47:38.681Z,23.35
2022-08-26T20:50:08.892Z,23.27
2022-08-26T20:52:37.566Z,23.23
2022-08-26T20:55:07.416Z,23.21
2022-08-26T20:57:36.159Z,23.23
2022-08-26T21:00:07.897Z,23.22
2022-08-26T21:02:37.291Z,23.18
2022-08-26T21:05:07.149Z,23.16
2022-08-26T21:07:36.320Z,23.12
2022-08-26T21:10:05.441Z,23.09
2022-08-26T21:12:34.217Z,23.05
2022-08-26T21:15:03.428Z,23.00
2022-08-26T21:17:34.002Z,22.94
2022-08-26T21:20:02.909Z,22.94
2022-08-26T21:22:31.597Z,22.91
2022-08-26T21:25:00.288Z,22.91
2022-08-26T21:27:29.297Z,22.90
2022-08-26T21:29:58.259Z,22.89
2022-08-26T21:32:26.829Z,22.90
2022-08-26T21:34:58.346Z,22.90
2022-08-26T21:37:29.395Z,22.88
2022-08-26T21:40:02.209Z,22.81
2022-08-26T21:42:33.905Z,22.79
2022-08-26T21:45:03.652Z,22.77
2022-08-26T21:47:33.200Z,22.77
2022-08-26T21:50:03.057Z,22.76
2022-08-26T21:52:32.292Z,22.69
2022-08-26T21:55:02.487Z,22.66
2022-08-26T21:57:31.937Z,22.61
2022-08-26T22:00:00.708Z,22.59
2022-08-26T22:02:35.235Z,22.62
2022-08-26T22:05:05.767Z,22.60
2022-08-26T22:07:34.825Z,22.57
2022-08-26T22:10:04.931Z,22.56
2022-08-26T22:12:33.651Z,22.54
2022-08-26T22:15:02.926Z,22.51
2022-08-26T22:17:32.020Z,22.53
2022-08-26T22:20:00.600Z,22.55
2022-08-26T22:22:31.471Z,22.53
2022-08-26T22:25:00.402Z,22.51
2022-08-26T22:27:29.099Z,22.49
2022-08-26T22:29:58.090Z,22.46
2022-08-26T22:32:26.669Z,22.44
2022-08-26T22:34:55.341Z,22.42
2022-08-26T22:37:24.040Z,22.38
2022-08-26T22:39:54.133Z,22.33
2022-08-26T22:42:22.981Z,22.28
2022-08-26T22:44:51.707Z,22.22
2022-08-26T22:47:20.659Z,22.19
2022-08-26T22:49:49.399Z,22.19
2022-08-26T22:52:18.220Z,22.14
2022-08-26T22:54:46.943Z,22.12
2022-08-26T22:57:16.973Z,22.10
2022-08-26T22:59:46.540Z,22.11
2022-08-26T23:02:14.968Z,22.11
2022-08-26T23:04:43.809Z,22.13
2022-08-26T23:07:13.562Z,22.13
2022-08-26T23:09:42.398Z,22.09
2022-08-26T23:12:11.050Z,22.04
2022-08-26T23:14:41.729Z,22.03
2022-08-26T23:17:12.440Z,21.99
2022-08-26T23:19:41.132Z,21.96
2022-08-26T23:22:09.948Z,21.97
2022-08-26T23:24:38.590Z,22.01
2022-08-26T23:27:07.500Z,22.01
2022-08-26T23:29:37.020Z,21.97
2022-08-26T23:32:07.648Z,21.95
2022-08-26T23:34:46.122Z,21.92
2022-08-26T23:37:17.028Z,21.94
2022-08-26T23:39:45.962Z,21.92
2022-08-26T23:42:14.689Z,21.91
2022-08-26T23:44:43.851Z,21.88
2022-08-26T23:47:25.451Z,21.84
2022-08-26T23:49:54.933Z,21.84
2022-08-26T23:52:33.545Z,21.79
2022-08-26T23:55:02.443Z,21.76
2022-08-26T23:57:31.352Z,21.71
